sensor_id;sensor_type;location;lat;lon;timestamp;P1;durP1;ratioP1;P2;durP2;ratioP2
39890;SDS011;25564;53.312;9.790;2022-11-27T00:00:05;21.63;;;6.03;;
39890;SDS011;25564;53.312;9.790;2022-11-27T00:02:37;19.53;;;5.73;;
39890;SDS011;25564;53.312;9.790;2022-11-27T00:05:11;16.13;;;6.33;;
39890;SDS011;25564;53.312;9.790;2022-11-27T00:07:42;18.80;;;6.13;;
39890;SDS011;25564;53.312;9.790;2022-11-27T00:10:13;20.17;;;7.37;;
39890;SDS011;25564;53.312;9.790;2022-11-27T00:12:45;17.70;;;6.27;;
39890;SDS011;25564;53.312;9.790;2022-11-27T00:15:16;21.83;;;6.27;;
39890;SDS011;25564;53.312;9.790;2022-11-27T00:17:48;17.07;;;5.97;;
39890;SDS011;25564;53.312;9.790;2022-11-27T00:20:20;20.03;;;6.07;;
39890;SDS011;25564;53.312;9.790;2022-11-27T00:22:51;21.00;;;5.83;;
39890;SDS011;25564;53.312;9.790;2022-11-27T00:25:22;18.93;;;8.43;;
39890;SDS011;25564;53.312;9.790;2022-11-27T00:27:53;21.50;;;6.30;;
39890;SDS011;25564;53.312;9.790;2022-11-27T00:30:25;20.80;;;6.90;;
39890;SDS011;25564;53.312;9.790;2022-11-27T00:32:56;17.77;;;6.20;;
39890;SDS011;25564;53.312;9.790;2022-11-27T00:35:28;22.87;;;6.67;;
39890;SDS011;25564;53.312;9.790;2022-11-27T00:37:59;14.17;;;5.73;;
39890;SDS011;25564;53.312;9.790;2022-11-27T00:40:30;21.47;;;7.07;;
39890;SDS011;25564;53.312;9.790;2022-11-27T00:43:01;24.83;;;7.23;;
39890;SDS011;25564;53.312;9.790;2022-11-27T00:45:33;19.43;;;7.10;;
39890;SDS011;25564;53.312;9.790;2022-11-27T00:48:04;27.57;;;6.70;;
39890;SDS011;25564;53.312;9.790;2022-11-27T00:50:36;17.30;;;6.67;;
39890;SDS011;25564;53.312;9.790;2022-11-27T00:53:07;14.67;;;6.00;;
39890;SDS011;25564;53.312;9.790;2022-11-27T00:55:38;29.60;;;7.33;;
39890;SDS011;25564;53.312;9.790;2022-11-27T00:58:10;21.93;;;6.07;;
39890;SDS011;25564;53.312;9.790;2022-11-27T01:00:41;16.93;;;6.77;;
39890;SDS011;25564;53.312;9.790;2022-11-27T01:03:12;18.00;;;6.67;;
39890;SDS011;25564;53.312;9.790;2022-11-27T01:05:43;17.20;;;6.40;;
39890;SDS011;25564;53.312;9.790;2022-11-27T01:08:15;18.03;;;6.57;;
39890;SDS011;25564;53.312;9.790;2022-11-27T01:10:51;17.10;;;5.70;;
39890;SDS011;25564;53.312;9.790;2022-11-27T01:13:26;12.23;;;5.83;;
39890;SDS011;25564;53.312;9.790;2022-11-27T01:18:32;15.20;;;5.50;;
39890;SDS011;25564;53.312;9.790;2022-11-27T01:21:05;17.93;;;6.17;;
39890;SDS011;25564;53.312;9.790;2022-11-27T01:23:37;16.60;;;5.70;;
39890;SDS011;25564;53.312;9.790;2022-11-27T01:26:09;20.70;;;5.87;;
39890;SDS011;25564;53.312;9.790;2022-11-27T01:28:41;13.30;;;6.37;;
39890;SDS011;25564;53.312;9.790;2022-11-27T01:31:14;17.80;;;6.03;;
39890;SDS011;25564;53.312;9.790;2022-11-27T01:33:50;18.03;;;6.30;;
39890;SDS011;25564;53.312;9.790;2022-11-27T01:36:23;17.13;;;6.30;;
39890;SDS011;25564;53.312;9.790;2022-11-27T01:38:55;20.97;;;6.60;;
39890;SDS011;25564;53.312;9.790;2022-11-27T01:41:27;16.67;;;5.93;;
39890;SDS011;25564;53.312;9.790;2022-11-27T01:49:47;18.83;;;6.77;;
39890;SDS011;25564;53.312;9.790;2022-11-27T01:52:26;15.60;;;6.90;;
39890;SDS011;25564;53.312;9.790;2022-11-27T01:55:06;16.80;;;6.63;;
39890;SDS011;25564;53.312;9.790;2022-11-27T01:57:42;16.83;;;7.00;;
39890;SDS011;25564;53.312;9.790;2022-11-27T02:00:17;22.83;;;7.43;;
39890;SDS011;25564;53.312;9.790;2022-11-27T02:02:49;21.20;;;6.97;;
39890;SDS011;25564;53.312;9.790;2022-11-27T02:05:22;19.83;;;6.87;;
39890;SDS011;25564;53.312;9.790;2022-11-27T02:07:58;25.13;;;7.23;;
39890;SDS011;25564;53.312;9.790;2022-11-27T02:10:52;22.17;;;7.20;;
39890;SDS011;25564;53.312;9.790;2022-11-27T02:13:36;18.70;;;6.70;;
39890;SDS011;25564;53.312;9.790;2022-11-27T02:22:57;18.00;;;6.73;;
39890;SDS011;25564;53.312;9.790;2022-11-27T02:30:26;18.95;;;7.15;;
39890;SDS011;25564;53.312;9.790;2022-11-27T02:33:05;19.27;;;7.23;;
39890;SDS011;25564;53.312;9.790;2022-11-27T02:35:55;25.13;;;7.80;;
39890;SDS011;25564;53.312;9.790;2022-11-27T02:38:45;17.07;;;7.93;;
39890;SDS011;25564;53.312;9.790;2022-11-27T02:41:26;19.90;;;8.30;;
39890;SDS011;25564;53.312;9.790;2022-11-27T02:44:00;19.87;;;8.40;;
39890;SDS011;25564;53.312;9.790;2022-11-27T02:46:33;18.13;;;7.03;;
39890;SDS011;25564;53.312;9.790;2022-11-27T02:49:06;16.53;;;7.97;;
39890;SDS011;25564;53.312;9.790;2022-11-27T02:51:42;19.83;;;7.60;;
39890;SDS011;25564;53.312;9.790;2022-11-27T02:54:20;24.47;;;8.13;;
39890;SDS011;25564;53.312;9.790;2022-11-27T02:56:59;23.43;;;7.67;;
39890;SDS011;25564;53.312;9.790;2022-11-27T02:59:34;21.50;;;8.38;;
39890;SDS011;25564;53.312;9.790;2022-11-27T03:02:08;28.00;;;6.93;;
39890;SDS011;25564;53.312;9.790;2022-11-27T03:04:49;23.87;;;7.83;;
39890;SDS011;25564;53.312;9.790;2022-11-27T03:07:30;20.33;;;7.87;;
39890;SDS011;25564;53.312;9.790;2022-11-27T03:10:15;24.80;;;8.07;;
39890;SDS011;25564;53.312;9.790;2022-11-27T03:12:50;21.60;;;8.80;;
39890;SDS011;25564;53.312;9.790;2022-11-27T03:15:22;25.23;;;9.17;;
39890;SDS011;25564;53.312;9.790;2022-11-27T03:17:57;24.93;;;8.43;;
39890;SDS011;25564;53.312;9.790;2022-11-27T03:20:40;26.77;;;8.57;;
39890;SDS011;25564;53.312;9.790;2022-11-27T03:23:14;25.63;;;8.97;;
39890;SDS011;25564;53.312;9.790;2022-11-27T03:25:46;24.47;;;8.37;;
39890;SDS011;25564;53.312;9.790;2022-11-27T03:28:17;29.17;;;8.73;;
39890;SDS011;25564;53.312;9.790;2022-11-27T03:30:48;23.63;;;8.80;;
39890;SDS011;25564;53.312;9.790;2022-11-27T03:33:20;21.67;;;8.70;;
39890;SDS011;25564;53.312;9.790;2022-11-27T03:35:51;21.20;;;8.77;;
39890;SDS011;25564;53.312;9.790;2022-11-27T03:38:23;19.00;;;8.13;;
39890;SDS011;25564;53.312;9.790;2022-11-27T03:40:59;20.03;;;7.80;;
39890;SDS011;25564;53.312;9.790;2022-11-27T03:43:40;18.73;;;8.73;;
39890;SDS011;25564;53.312;9.790;2022-11-27T03:46:20;21.03;;;8.50;;
39890;SDS011;25564;53.312;9.790;2022-11-27T03:49:02;21.53;;;8.27;;
39890;SDS011;25564;53.312;9.790;2022-11-27T03:55:01;21.10;;;8.17;;
39890;SDS011;25564;53.312;9.790;2022-11-27T03:57:44;22.07;;;9.57;;
39890;SDS011;25564;53.312;9.790;2022-11-27T04:00:30;26.60;;;9.47;;
39890;SDS011;25564;53.312;9.790;2022-11-27T04:03:10;24.87;;;10.23;;
39890;SDS011;25564;53.312;9.790;2022-11-27T04:05:42;24.73;;;9.80;;
39890;SDS011;25564;53.312;9.790;2022-11-27T04:08:14;30.83;;;10.13;;
39890;SDS011;25564;53.312;9.790;2022-11-27T04:10:45;23.40;;;10.60;;
39890;SDS011;25564;53.312;9.790;2022-11-27T04:13:17;32.53;;;10.67;;
39890;SDS011;25564;53.312;9.790;2022-11-27T04:15:48;27.60;;;9.83;;
39890;SDS011;25564;53.312;9.790;2022-11-27T04:18:19;25.37;;;11.07;;
39890;SDS011;25564;53.312;9.790;2022-11-27T04:20:51;24.13;;;10.23;;
39890;SDS011;25564;53.312;9.790;2022-11-27T04:23:22;23.93;;;10.40;;
39890;SDS011;25564;53.312;9.790;2022-11-27T04:25:53;28.30;;;11.70;;
39890;SDS011;25564;53.312;9.790;2022-11-27T04:28:25;26.67;;;10.87;;
39890;SDS011;25564;53.312;9.790;2022-11-27T04:30:56;27.30;;;9.70;;
39890;SDS011;25564;53.312;9.790;2022-11-27T04:33:28;27.97;;;11.70;;
39890;SDS011;25564;53.312;9.790;2022-11-27T04:35:59;27.97;;;11.20;;
39890;SDS011;25564;53.312;9.790;2022-11-27T04:38:31;28.40;;;11.40;;
39890;SDS011;25564;53.312;9.790;2022-11-27T04:41:02;23.80;;;10.17;;
39890;SDS011;25564;53.312;9.790;2022-11-27T04:43:33;24.00;;;12.53;;
39890;SDS011;25564;53.312;9.790;2022-11-27T04:46:05;32.20;;;11.70;;
39890;SDS011;25564;53.312;9.790;2022-11-27T04:48:36;31.40;;;12.13;;
39890;SDS011;25564;53.312;9.790;2022-11-27T04:51:07;31.30;;;12.13;;
39890;SDS011;25564;53.312;9.790;2022-11-27T04:53:39;29.47;;;12.10;;
39890;SDS011;25564;53.312;9.790;2022-11-27T04:56:10;32.50;;;12.03;;
39890;SDS011;25564;53.312;9.790;2022-11-27T04:58:42;33.80;;;12.37;;
39890;SDS011;25564;53.312;9.790;2022-11-27T05:01:13;29.80;;;12.43;;
39890;SDS011;25564;53.312;9.790;2022-11-27T05:03:45;35.07;;;13.27;;
39890;SDS011;25564;53.312;9.790;2022-11-27T05:06:17;32.67;;;12.63;;
39890;SDS011;25564;53.312;9.790;2022-11-27T05:08:49;29.00;;;12.17;;
39890;SDS011;25564;53.312;9.790;2022-11-27T05:11:20;32.37;;;12.30;;
39890;SDS011;25564;53.312;9.790;2022-11-27T05:13:51;34.17;;;13.13;;
39890;SDS011;25564;53.312;9.790;2022-11-27T05:16:44;30.47;;;11.97;;
39890;SDS011;25564;53.312;9.790;2022-11-27T05:19:18;30.43;;;13.07;;
39890;SDS011;25564;53.312;9.790;2022-11-27T05:21:50;29.77;;;13.37;;
39890;SDS011;25564;53.312;9.790;2022-11-27T05:24:23;37.27;;;14.20;;
39890;SDS011;25564;53.312;9.790;2022-11-27T05:26:56;32.47;;;12.37;;
39890;SDS011;25564;53.312;9.790;2022-11-27T05:29:27;31.60;;;13.33;;
39890;SDS011;25564;53.312;9.790;2022-11-27T05:31:59;31.63;;;12.70;;
39890;SDS011;25564;53.312;9.790;2022-11-27T05:34:30;33.80;;;14.37;;
39890;SDS011;25564;53.312;9.790;2022-11-27T05:37:02;36.00;;;13.50;;
39890;SDS011;25564;53.312;9.790;2022-11-27T05:39:33;33.50;;;13.60;;
39890;SDS011;25564;53.312;9.790;2022-11-27T05:42:04;28.90;;;13.33;;
39890;SDS011;25564;53.312;9.790;2022-11-27T05:44:36;32.37;;;13.47;;
39890;SDS011;25564;53.312;9.790;2022-11-27T05:47:07;31.57;;;12.27;;
39890;SDS011;25564;53.312;9.790;2022-11-27T05:49:38;28.90;;;13.50;;
39890;SDS011;25564;53.312;9.790;2022-11-27T05:52:10;35.27;;;14.47;;
39890;SDS011;25564;53.312;9.790;2022-11-27T05:54:41;32.17;;;13.13;;
39890;SDS011;25564;53.312;9.790;2022-11-27T05:57:12;35.67;;;13.70;;
39890;SDS011;25564;53.312;9.790;2022-11-27T05:59:44;33.77;;;12.77;;
39890;SDS011;25564;53.312;9.790;2022-11-27T06:02:15;32.90;;;13.43;;
39890;SDS011;25564;53.312;9.790;2022-11-27T06:04:53;30.90;;;13.20;;
39890;SDS011;25564;53.312;9.790;2022-11-27T06:07:25;37.83;;;13.03;;
39890;SDS011;25564;53.312;9.790;2022-11-27T06:09:56;32.63;;;13.37;;
39890;SDS011;25564;53.312;9.790;2022-11-27T06:12:29;35.03;;;13.67;;
39890;SDS011;25564;53.312;9.790;2022-11-27T06:15:02;28.97;;;13.13;;
39890;SDS011;25564;53.312;9.790;2022-11-27T06:17:33;36.07;;;13.30;;
39890;SDS011;25564;53.312;9.790;2022-11-27T06:20:05;31.00;;;13.00;;
39890;SDS011;25564;53.312;9.790;2022-11-27T06:22:36;37.37;;;13.63;;
39890;SDS011;25564;53.312;9.790;2022-11-27T06:25:08;27.97;;;12.03;;
39890;SDS011;25564;53.312;9.790;2022-11-27T06:27:39;37.70;;;13.00;;
39890;SDS011;25564;53.312;9.790;2022-11-27T06:30:11;28.93;;;12.17;;
39890;SDS011;25564;53.312;9.790;2022-11-27T06:32:43;29.30;;;12.83;;
39890;SDS011;25564;53.312;9.790;2022-11-27T06:35:14;30.90;;;13.37;;
39890;SDS011;25564;53.312;9.790;2022-11-27T06:37:45;36.47;;;13.93;;
39890;SDS011;25564;53.312;9.790;2022-11-27T06:40:16;35.97;;;13.07;;
39890;SDS011;25564;53.312;9.790;2022-11-27T06:42:48;34.37;;;12.97;;
39890;SDS011;25564;53.312;9.790;2022-11-27T06:45:19;33.13;;;13.13;;
39890;SDS011;25564;53.312;9.790;2022-11-27T06:47:51;42.43;;;12.83;;
39890;SDS011;25564;53.312;9.790;2022-11-27T06:50:22;33.23;;;13.27;;
39890;SDS011;25564;53.312;9.790;2022-11-27T06:52:53;38.90;;;13.77;;
39890;SDS011;25564;53.312;9.790;2022-11-27T06:55:25;30.93;;;12.60;;
39890;SDS011;25564;53.312;9.790;2022-11-27T06:57:56;38.10;;;13.67;;
39890;SDS011;25564;53.312;9.790;2022-11-27T07:00:28;36.77;;;12.70;;
39890;SDS011;25564;53.312;9.790;2022-11-27T07:02:59;30.33;;;12.20;;
39890;SDS011;25564;53.312;9.790;2022-11-27T07:05:30;32.80;;;13.13;;
39890;SDS011;25564;53.312;9.790;2022-11-27T07:08:02;34.80;;;12.87;;
39890;SDS011;25564;53.312;9.790;2022-11-27T07:10:34;33.03;;;12.80;;
39890;SDS011;25564;53.312;9.790;2022-11-27T07:13:06;31.73;;;13.30;;
39890;SDS011;25564;53.312;9.790;2022-11-27T07:15:37;30.63;;;12.87;;
39890;SDS011;25564;53.312;9.790;2022-11-27T07:18:09;32.90;;;13.47;;
39890;SDS011;25564;53.312;9.790;2022-11-27T07:20:40;40.87;;;14.87;;
39890;SDS011;25564;53.312;9.790;2022-11-27T07:23:12;33.63;;;12.40;;
39890;SDS011;25564;53.312;9.790;2022-11-27T07:25:43;36.07;;;14.27;;
39890;SDS011;25564;53.312;9.790;2022-11-27T07:28:14;34.10;;;14.77;;
39890;SDS011;25564;53.312;9.790;2022-11-27T07:30:53;36.83;;;15.47;;
39890;SDS011;25564;53.312;9.790;2022-11-27T07:33:25;28.80;;;13.23;;
39890;SDS011;25564;53.312;9.790;2022-11-27T07:36:02;34.67;;;14.47;;
39890;SDS011;25564;53.312;9.790;2022-11-27T07:38:35;30.67;;;12.20;;
39890;SDS011;25564;53.312;9.790;2022-11-27T07:41:06;30.87;;;13.00;;
39890;SDS011;25564;53.312;9.790;2022-11-27T07:43:40;30.70;;;12.97;;
39890;SDS011;25564;53.312;9.790;2022-11-27T07:46:17;27.50;;;11.57;;
39890;SDS011;25564;53.312;9.790;2022-11-27T07:48:50;31.37;;;12.63;;
39890;SDS011;25564;53.312;9.790;2022-11-27T07:51:22;25.30;;;11.17;;
39890;SDS011;25564;53.312;9.790;2022-11-27T07:53:54;28.43;;;12.73;;
39890;SDS011;25564;53.312;9.790;2022-11-27T07:56:25;28.33;;;11.93;;
39890;SDS011;25564;53.312;9.790;2022-11-27T07:58:57;29.00;;;11.70;;
39890;SDS011;25564;53.312;9.790;2022-11-27T08:01:29;26.47;;;10.70;;
39890;SDS011;25564;53.312;9.790;2022-11-27T08:04:00;27.30;;;10.67;;
39890;SDS011;25564;53.312;9.790;2022-11-27T08:06:31;28.47;;;11.60;;
39890;SDS011;25564;53.312;9.790;2022-11-27T08:09:03;31.37;;;12.60;;
39890;SDS011;25564;53.312;9.790;2022-11-27T08:11:34;26.17;;;11.53;;
39890;SDS011;25564;53.312;9.790;2022-11-27T08:14:06;26.07;;;11.67;;
39890;SDS011;25564;53.312;9.790;2022-11-27T08:16:37;25.00;;;10.70;;
39890;SDS011;25564;53.312;9.790;2022-11-27T08:19:09;40.87;;;17.47;;
39890;SDS011;25564;53.312;9.790;2022-11-27T08:21:40;38.43;;;19.33;;
39890;SDS011;25564;53.312;9.790;2022-11-27T08:24:12;33.33;;;12.27;;
39890;SDS011;25564;53.312;9.790;2022-11-27T08:26:43;21.63;;;10.90;;
39890;SDS011;25564;53.312;9.790;2022-11-27T08:29:14;45.53;;;19.10;;
39890;SDS011;25564;53.312;9.790;2022-11-27T08:31:46;25.23;;;11.40;;
39890;SDS011;25564;53.312;9.790;2022-11-27T08:34:17;21.63;;;9.43;;
39890;SDS011;25564;53.312;9.790;2022-11-27T08:36:48;22.80;;;8.97;;
39890;SDS011;25564;53.312;9.790;2022-11-27T08:39:20;22.07;;;8.50;;
39890;SDS011;25564;53.312;9.790;2022-11-27T08:41:54;22.50;;;8.80;;
39890;SDS011;25564;53.312;9.790;2022-11-27T08:44:26;28.33;;;9.73;;
39890;SDS011;25564;53.312;9.790;2022-11-27T08:46:57;19.20;;;8.43;;
39890;SDS011;25564;53.312;9.790;2022-11-27T08:49:28;17.13;;;7.63;;
39890;SDS011;25564;53.312;9.790;2022-11-27T08:52:00;19.77;;;8.13;;
39890;SDS011;25564;53.312;9.790;2022-11-27T08:54:31;19.23;;;7.90;;
39890;SDS011;25564;53.312;9.790;2022-11-27T08:57:02;23.53;;;8.27;;
39890;SDS011;25564;53.312;9.790;2022-11-27T08:59:34;17.07;;;7.97;;
39890;SDS011;25564;53.312;9.790;2022-11-27T09:02:08;26.50;;;8.60;;
39890;SDS011;25564;53.312;9.790;2022-11-27T09:04:41;16.10;;;7.20;;
39890;SDS011;25564;53.312;9.790;2022-11-27T09:07:13;16.97;;;7.37;;
39890;SDS011;25564;53.312;9.790;2022-11-27T09:09:45;19.67;;;7.73;;
39890;SDS011;25564;53.312;9.790;2022-11-27T09:12:17;20.57;;;6.87;;
39890;SDS011;25564;53.312;9.790;2022-11-27T09:14:48;19.10;;;7.47;;
39890;SDS011;25564;53.312;9.790;2022-11-27T09:17:19;15.27;;;7.13;;
39890;SDS011;25564;53.312;9.790;2022-11-27T09:19:50;16.70;;;7.23;;
39890;SDS011;25564;53.312;9.790;2022-11-27T09:22:22;15.03;;;6.83;;
39890;SDS011;25564;53.312;9.790;2022-11-27T09:24:53;15.33;;;7.73;;
39890;SDS011;25564;53.312;9.790;2022-11-27T09:27:24;18.03;;;6.70;;
39890;SDS011;25564;53.312;9.790;2022-11-27T09:29:57;12.60;;;6.30;;
39890;SDS011;25564;53.312;9.790;2022-11-27T09:32:28;18.90;;;6.83;;
39890;SDS011;25564;53.312;9.790;2022-11-27T09:35:00;15.23;;;6.40;;
39890;SDS011;25564;53.312;9.790;2022-11-27T09:37:31;12.47;;;6.20;;
39890;SDS011;25564;53.312;9.790;2022-11-27T09:40:03;15.73;;;6.33;;
39890;SDS011;25564;53.312;9.790;2022-11-27T09:42:39;14.37;;;6.53;;
39890;SDS011;25564;53.312;9.790;2022-11-27T09:45:17;17.80;;;7.63;;
39890;SDS011;25564;53.312;9.790;2022-11-27T09:47:49;16.30;;;7.20;;
39890;SDS011;25564;53.312;9.790;2022-11-27T09:50:26;17.27;;;6.70;;
39890;SDS011;25564;53.312;9.790;2022-11-27T09:53:18;11.30;;;6.00;;
39890;SDS011;25564;53.312;9.790;2022-11-27T09:55:53;12.27;;;6.50;;
39890;SDS011;25564;53.312;9.790;2022-11-27T09:58:38;14.20;;;5.77;;
39890;SDS011;25564;53.312;9.790;2022-11-27T10:01:12;18.20;;;6.30;;
39890;SDS011;25564;53.312;9.790;2022-11-27T10:03:46;14.20;;;5.50;;
39890;SDS011;25564;53.312;9.790;2022-11-27T10:09:33;18.97;;;6.40;;
39890;SDS011;25564;53.312;9.790;2022-11-27T10:18:00;10.50;;;5.47;;
39890;SDS011;25564;53.312;9.790;2022-11-27T10:20:39;11.93;;;5.90;;
39890;SDS011;25564;53.312;9.790;2022-11-27T10:25:59;10.10;;;4.83;;
39890;SDS011;25564;53.312;9.790;2022-11-27T10:28:40;8.67;;;4.73;;
39890;SDS011;25564;53.312;9.790;2022-11-27T10:31:30;13.40;;;5.90;;
39890;SDS011;25564;53.312;9.790;2022-11-27T10:34:17;14.20;;;5.43;;
39890;SDS011;25564;53.312;9.790;2022-11-27T10:36:56;9.43;;;5.00;;
39890;SDS011;25564;53.312;9.790;2022-11-27T10:42:13;10.17;;;5.60;;
39890;SDS011;25564;53.312;9.790;2022-11-27T10:44:54;16.13;;;5.37;;
39890;SDS011;25564;53.312;9.790;2022-11-27T10:47:31;12.83;;;5.20;;
39890;SDS011;25564;53.312;9.790;2022-11-27T10:50:08;11.83;;;5.37;;
39890;SDS011;25564;53.312;9.790;2022-11-27T10:53:04;12.27;;;6.03;;
39890;SDS011;25564;53.312;9.790;2022-11-27T10:55:41;19.63;;;8.80;;
39890;SDS011;25564;53.312;9.790;2022-11-27T11:01:21;27.67;;;10.67;;
39890;SDS011;25564;53.312;9.790;2022-11-27T11:04:07;39.00;;;15.77;;
39890;SDS011;25564;53.312;9.790;2022-11-27T11:06:59;40.07;;;14.03;;
39890;SDS011;25564;53.312;9.790;2022-11-27T11:09:32;39.70;;;16.53;;
39890;SDS011;25564;53.312;9.790;2022-11-27T11:12:08;23.97;;;9.53;;
39890;SDS011;25564;53.312;9.790;2022-11-27T11:14:55;18.43;;;8.53;;
39890;SDS011;25564;53.312;9.790;2022-11-27T11:17:29;10.43;;;6.03;;
39890;SDS011;25564;53.312;9.790;2022-11-27T11:23:05;12.13;;;5.87;;
39890;SDS011;25564;53.312;9.790;2022-11-27T11:25:37;12.40;;;5.07;;
39890;SDS011;25564;53.312;9.790;2022-11-27T11:28:13;9.50;;;5.53;;
39890;SDS011;25564;53.312;9.790;2022-11-27T11:30:51;14.53;;;5.03;;
39890;SDS011;25564;53.312;9.790;2022-11-27T11:33:25;11.70;;;4.90;;
39890;SDS011;25564;53.312;9.790;2022-11-27T11:35:59;10.03;;;5.30;;
39890;SDS011;25564;53.312;9.790;2022-11-27T11:38:40;23.60;;;10.07;;
39890;SDS011;25564;53.312;9.790;2022-11-27T11:41:14;33.28;;;13.95;;
39890;SDS011;25564;53.312;9.790;2022-11-27T11:43:58;36.67;;;14.40;;
39890;SDS011;25564;53.312;9.790;2022-11-27T11:46:32;31.47;;;13.13;;
39890;SDS011;25564;53.312;9.790;2022-11-27T11:49:14;15.30;;;8.50;;
39890;SDS011;25564;53.312;9.790;2022-11-27T11:52:02;9.90;;;5.40;;
39890;SDS011;25564;53.312;9.790;2022-11-27T11:54:38;11.27;;;4.88;;
39890;SDS011;25564;53.312;9.790;2022-11-27T11:57:35;14.73;;;5.00;;
39890;SDS011;25564;53.312;9.790;2022-11-27T12:00:18;17.17;;;9.27;;
39890;SDS011;25564;53.312;9.790;2022-11-27T12:03:13;27.13;;;13.70;;
39890;SDS011;25564;53.312;9.790;2022-11-27T12:14:46;16.67;;;7.23;;
39890;SDS011;25564;53.312;9.790;2022-11-27T12:26:06;15.10;;;7.17;;
39890;SDS011;25564;53.312;9.790;2022-11-27T12:29:04;11.03;;;5.40;;
39890;SDS011;25564;53.312;9.790;2022-11-27T12:32:16;10.30;;;4.90;;
39890;SDS011;25564;53.312;9.790;2022-11-27T12:41:01;10.65;;;4.88;;
39890;SDS011;25564;53.312;9.790;2022-11-27T12:43:39;11.53;;;5.77;;
39890;SDS011;25564;53.312;9.790;2022-11-27T12:46:23;13.37;;;4.60;;
39890;SDS011;25564;53.312;9.790;2022-11-27T12:49:04;12.67;;;7.17;;
39890;SDS011;25564;53.312;9.790;2022-11-27T12:54:57;11.60;;;4.60;;
39890;SDS011;25564;53.312;9.790;2022-11-27T12:57:46;7.93;;;3.73;;
39890;SDS011;25564;53.312;9.790;2022-11-27T13:00:22;10.82;;;5.28;;
39890;SDS011;25564;53.312;9.790;2022-11-27T13:03:17;10.90;;;6.03;;
39890;SDS011;25564;53.312;9.790;2022-11-27T13:06:07;12.17;;;6.00;;
39890;SDS011;25564;53.312;9.790;2022-11-27T13:08:53;15.57;;;6.93;;
39890;SDS011;25564;53.312;9.790;2022-11-27T13:11:43;9.47;;;5.33;;
39890;SDS011;25564;53.312;9.790;2022-11-27T13:14:17;10.73;;;5.17;;
39890;SDS011;25564;53.312;9.790;2022-11-27T13:16:51;10.43;;;4.63;;
39890;SDS011;25564;53.312;9.790;2022-11-27T13:19:43;11.55;;;5.90;;
39890;SDS011;25564;53.312;9.790;2022-11-27T13:22:19;16.83;;;8.43;;
39890;SDS011;25564;53.312;9.790;2022-11-27T13:24:59;11.87;;;6.13;;
39890;SDS011;25564;53.312;9.790;2022-11-27T13:27:32;9.63;;;5.20;;
39890;SDS011;25564;53.312;9.790;2022-11-27T13:30:07;13.77;;;5.50;;
39890;SDS011;25564;53.312;9.790;2022-11-27T13:32:51;9.07;;;4.67;;
39890;SDS011;25564;53.312;9.790;2022-11-27T13:35:29;11.07;;;5.30;;
39890;SDS011;25564;53.312;9.790;2022-11-27T13:38:10;9.27;;;4.27;;
39890;SDS011;25564;53.312;9.790;2022-11-27T13:40:46;8.43;;;4.38;;
39890;SDS011;25564;53.312;9.790;2022-11-27T13:43:20;10.73;;;5.20;;
39890;SDS011;25564;53.312;9.790;2022-11-27T13:46:02;9.47;;;5.20;;
39890;SDS011;25564;53.312;9.790;2022-11-27T13:48:38;10.33;;;5.20;;
39890;SDS011;25564;53.312;9.790;2022-11-27T13:51:20;18.67;;;9.40;;
39890;SDS011;25564;53.312;9.790;2022-11-27T13:54:14;10.60;;;6.63;;
39890;SDS011;25564;53.312;9.790;2022-11-27T13:56:48;10.47;;;5.20;;
39890;SDS011;25564;53.312;9.790;2022-11-27T13:59:20;12.97;;;5.77;;
39890;SDS011;25564;53.312;9.790;2022-11-27T14:02:03;16.87;;;6.93;;
39890;SDS011;25564;53.312;9.790;2022-11-27T14:04:46;14.30;;;7.30;;
39890;SDS011;25564;53.312;9.790;2022-11-27T14:07:33;20.73;;;8.87;;
39890;SDS011;25564;53.312;9.790;2022-11-27T14:10:12;20.63;;;12.23;;
39890;SDS011;25564;53.312;9.790;2022-11-27T14:12:53;18.13;;;9.23;;
39890;SDS011;25564;53.312;9.790;2022-11-27T14:15:28;12.73;;;8.60;;
39890;SDS011;25564;53.312;9.790;2022-11-27T14:20:51;13.93;;;5.80;;
39890;SDS011;25564;53.312;9.790;2022-11-27T14:23:30;11.37;;;5.97;;
39890;SDS011;25564;53.312;9.790;2022-11-27T14:26:17;11.37;;;5.13;;
39890;SDS011;25564;53.312;9.790;2022-11-27T14:28:51;12.13;;;5.23;;
39890;SDS011;25564;53.312;9.790;2022-11-27T14:31:27;11.87;;;4.70;;
39890;SDS011;25564;53.312;9.790;2022-11-27T14:34:00;13.00;;;4.70;;
39890;SDS011;25564;53.312;9.790;2022-11-27T14:36:53;8.70;;;3.90;;
39890;SDS011;25564;53.312;9.790;2022-11-27T14:39:32;8.63;;;4.70;;
39890;SDS011;25564;53.312;9.790;2022-11-27T14:42:06;12.07;;;4.70;;
39890;SDS011;25564;53.312;9.790;2022-11-27T14:44:59;7.30;;;4.57;;
39890;SDS011;25564;53.312;9.790;2022-11-27T14:47:31;11.00;;;5.13;;
39890;SDS011;25564;53.312;9.790;2022-11-27T14:50:03;10.83;;;4.43;;
39890;SDS011;25564;53.312;9.790;2022-11-27T14:52:35;15.03;;;4.90;;
39890;SDS011;25564;53.312;9.790;2022-11-27T14:55:13;10.97;;;4.57;;
39890;SDS011;25564;53.312;9.790;2022-11-27T14:57:46;12.07;;;5.13;;
39890;SDS011;25564;53.312;9.790;2022-11-27T15:00:21;11.87;;;5.93;;
39890;SDS011;25564;53.312;9.790;2022-11-27T15:03:09;9.67;;;5.27;;
39890;SDS011;25564;53.312;9.790;2022-11-27T15:05:41;8.87;;;5.23;;
39890;SDS011;25564;53.312;9.790;2022-11-27T15:08:22;14.73;;;5.80;;
39890;SDS011;25564;53.312;9.790;2022-11-27T15:10:55;7.40;;;4.73;;
39890;SDS011;25564;53.312;9.790;2022-11-27T15:13:29;10.63;;;5.40;;
39890;SDS011;25564;53.312;9.790;2022-11-27T15:16:04;10.70;;;5.13;;
39890;SDS011;25564;53.312;9.790;2022-11-27T15:18:47;20.30;;;4.93;;
39890;SDS011;25564;53.312;9.790;2022-11-27T15:21:21;14.77;;;5.57;;
39890;SDS011;25564;53.312;9.790;2022-11-27T15:23:57;8.85;;;4.57;;
39890;SDS011;25564;53.312;9.790;2022-11-27T15:32:23;19.20;;;6.97;;
39890;SDS011;25564;53.312;9.790;2022-11-27T15:34:56;17.07;;;7.13;;
39890;SDS011;25564;53.312;9.790;2022-11-27T15:37:28;15.37;;;7.83;;
39890;SDS011;25564;53.312;9.790;2022-11-27T15:40:01;12.87;;;6.37;;
39890;SDS011;25564;53.312;9.790;2022-11-27T15:42:33;15.07;;;8.80;;
39890;SDS011;25564;53.312;9.790;2022-11-27T15:45:05;16.50;;;7.20;;
39890;SDS011;25564;53.312;9.790;2022-11-27T15:47:37;10.20;;;5.83;;
39890;SDS011;25564;53.312;9.790;2022-11-27T15:50:12;14.43;;;5.60;;
39890;SDS011;25564;53.312;9.790;2022-11-27T15:52:45;12.45;;;5.20;;
39890;SDS011;25564;53.312;9.790;2022-11-27T15:55:17;10.63;;;4.80;;
39890;SDS011;25564;53.312;9.790;2022-11-27T15:57:48;7.80;;;4.30;;
39890;SDS011;25564;53.312;9.790;2022-11-27T16:00:20;8.60;;;4.60;;
39890;SDS011;25564;53.312;9.790;2022-11-27T16:02:52;12.67;;;5.00;;
39890;SDS011;25564;53.312;9.790;2022-11-27T16:05:24;7.63;;;4.53;;
39890;SDS011;25564;53.312;9.790;2022-11-27T16:07:55;9.27;;;3.70;;
39890;SDS011;25564;53.312;9.790;2022-11-27T16:10:27;9.77;;;4.23;;
39890;SDS011;25564;53.312;9.790;2022-11-27T16:12:59;9.37;;;3.80;;
39890;SDS011;25564;53.312;9.790;2022-11-27T16:15:32;9.70;;;4.90;;
39890;SDS011;25564;53.312;9.790;2022-11-27T16:18:04;8.13;;;4.40;;
39890;SDS011;25564;53.312;9.790;2022-11-27T16:20:37;9.73;;;4.33;;
39890;SDS011;25564;53.312;9.790;2022-11-27T16:23:08;9.07;;;4.23;;
39890;SDS011;25564;53.312;9.790;2022-11-27T16:25:40;15.33;;;4.57;;
39890;SDS011;25564;53.312;9.790;2022-11-27T16:28:11;9.30;;;4.60;;
39890;SDS011;25564;53.312;9.790;2022-11-27T16:30:43;9.13;;;4.63;;
39890;SDS011;25564;53.312;9.790;2022-11-27T16:33:14;8.13;;;4.40;;
39890;SDS011;25564;53.312;9.790;2022-11-27T16:35:50;8.80;;;4.70;;